createdAt,value
2023-11-12T00:00:22.501Z,60.95
2023-11-12T00:02:50.367Z,60.64
2023-11-12T00:05:19.187Z,60.31
2023-11-12T00:07:49.485Z,60.96
2023-11-12T00:10:17.529Z,61.02
2023-11-12T00:12:45.748Z,60.20
2023-11-12T00:15:14.153Z,60.76
2023-11-12T00:17:43.180Z,60.48
2023-11-12T00:20:14.083Z,61.02
2023-11-12T00:22:45.126Z,60.61
2023-11-12T00:25:15.135Z,60.64
2023-11-12T00:27:43.112Z,60.50
2023-11-12T00:30:12.476Z,60.71
2023-11-12T00:32:40.570Z,60.49
2023-11-12T00:35:09.532Z,60.58
2023-11-12T00:37:37.397Z,60.59
2023-11-12T00:40:05.780Z,61.02
2023-11-12T00:42:35.183Z,61.16
2023-11-12T00:45:03.140Z,61.28
2023-11-12T00:47:30.882Z,61.21
2023-11-12T00:49:59.106Z,61.01
2023-11-12T00:52:27.046Z,60.98
2023-11-12T00:54:54.864Z,61.53
2023-11-12T00:57:23.513Z,61.19
2023-11-12T00:59:52.656Z,61.20
2023-11-12T01:02:20.599Z,61.04
2023-11-12T01:04:48.482Z,61.12
2023-11-12T01:07:17.037Z,61.00
2023-11-12T01:10:11.925Z,60.86
2023-11-12T01:12:39.858Z,60.87
2023-11-12T01:15:09.745Z,61.01
2023-11-12T01:17:38.216Z,60.85
2023-11-12T01:20:07.804Z,60.77
2023-11-12T01:22:35.683Z,60.82
2023-11-12T01:25:03.768Z,61.49
2023-11-12T01:27:31.677Z,60.73
2023-11-12T01:29:59.478Z,60.59
2023-11-12T01:32:28.890Z,60.78
2023-11-12T01:34:56.978Z,60.61
2023-11-12T01:37:25.056Z,60.50
2023-11-12T01:39:52.915Z,60.64
2023-11-12T01:42:20.855Z,61.14
2023-11-12T01:44:48.736Z,60.76
2023-11-12T01:47:17.479Z,60.44
2023-11-12T01:49:46.716Z,60.27
2023-11-12T01:52:14.488Z,60.94
2023-11-12T01:54:45.311Z,61.24
2023-11-12T01:57:13.398Z,60.41
2023-11-12T01:59:41.287Z,59.62
2023-11-12T02:02:09.122Z,60.17
2023-11-12T02:04:36.896Z,60.14
2023-11-12T08:14:22.118Z,41.24
2023-11-12T08:16:54.576Z,39.39
2023-11-12T08:19:23.256Z,38.43
2023-11-12T08:21:54.331Z,37.20
2023-11-12T08:24:26.098Z,36.49
2023-11-12T08:27:03.548Z,35.02
2023-11-12T08:29:33.428Z,33.95
2023-11-12T08:32:02.863Z,33.36
2023-11-12T08:34:30.785Z,32.04
2023-11-12T08:36:58.682Z,31.08
2023-11-12T08:39:36.680Z,30.71
2023-11-12T08:42:13.464Z,30.00
2023-11-12T08:44:44.732Z,30.19
2023-11-12T08:47:21.665Z,29.37
2023-11-12T08:49:50.729Z,29.04
2023-11-12T10:28:59.379Z,17.66
2023-11-12T10:31:37.780Z,17.40
2023-11-12T10:34:05.637Z,17.25
2023-11-12T10:36:33.384Z,16.61
2023-11-12T10:39:05.144Z,15.93
2023-11-12T10:41:35.890Z,15.49
2023-11-12T10:44:05.499Z,15.73
2023-11-12T10:46:34.386Z,15.55
2023-11-12T10:49:02.863Z,15.50
2023-11-12T10:51:30.864Z,15.58
2023-11-12T10:54:00.002Z,15.62
2023-11-12T10:56:28.490Z,15.42
2023-11-12T10:58:59.645Z,15.89
2023-11-12T11:04:44.333Z,15.46
2023-11-12T11:07:23.339Z,15.20
2023-11-12T11:09:51.774Z,14.85
2023-11-12T11:12:20.116Z,14.58
2023-11-12T11:14:49.222Z,14.60
2023-11-12T11:17:39.958Z,14.26
2023-11-12T11:20:13.402Z,14.09
2023-11-12T11:22:42.914Z,13.05
2023-11-12T11:25:24.243Z,13.84
2023-11-12T11:27:53.313Z,12.93
2023-11-12T11:30:24.955Z,12.86
2023-11-12T11:33:01.241Z,12.92
2023-11-12T11:35:30.286Z,12.76
2023-11-12T11:38:15.247Z,12.57
2023-11-12T11:40:46.424Z,12.42
2023-11-12T11:43:35.836Z,12.80
2023-11-12T11:46:11.436Z,13.07
2023-11-12T11:49:20.297Z,13.49
2023-11-12T11:51:53.019Z,14.13
2023-11-12T14:14:39.033Z,37.89
2023-11-12T14:17:09.053Z,38.15
2023-11-12T14:19:37.348Z,38.42
2023-11-12T14:22:07.844Z,38.77
2023-11-12T14:24:38.282Z,38.82
2023-11-12T14:27:08.823Z,39.49
2023-11-12T14:29:38.453Z,39.52
2023-11-12T14:32:07.702Z,40.03
2023-11-12T14:34:36.208Z,40.00
2023-11-12T14:37:04.364Z,40.34
2023-11-12T14:39:32.632Z,40.66
2023-11-12T14:42:01.273Z,40.90
2023-11-12T14:44:29.142Z,40.95
2023-11-12T14:46:58.563Z,41.04
2023-11-12T14:49:27.295Z,41.43
2023-11-12T14:51:56.210Z,41.41
2023-11-12T15:26:49.657Z,43.93
2023-11-12T15:29:20.191Z,44.30
2023-11-12T15:31:48.250Z,44.41
2023-11-12T15:34:16.752Z,44.71
2023-11-12T15:36:44.668Z,44.61
2023-11-12T15:39:15.076Z,44.60
2023-11-12T15:41:42.979Z,45.06
2023-11-12T15:44:12.445Z,45.20
2023-11-12T15:46:44.623Z,44.88
2023-11-12T15:49:12.773Z,45.42
2023-11-12T15:51:40.719Z,45.29
2023-11-12T15:54:08.840Z,45.53
2023-11-12T15:56:37.243Z,45.81
2023-11-12T15:59:05.189Z,46.44
2023-11-12T16:01:35.310Z,46.63
2023-11-12T16:04:06.308Z,46.98
2023-11-12T16:06:34.815Z,46.90
2023-11-12T16:09:09.736Z,47.12
2023-11-12T16:11:37.664Z,47.68
2023-11-12T16:14:06.168Z,47.45
2023-11-12T16:16:35.482Z,47.56
2023-11-12T16:19:03.402Z,47.85
2023-11-12T16:21:31.318Z,47.99
2023-11-12T16:24:02.431Z,48.50
2023-11-12T16:26:32.289Z,48.17
2023-11-12T16:29:00.213Z,48.13
2023-11-12T16:31:28.903Z,48.30
2023-11-12T16:34:00.478Z,48.55
2023-11-12T16:36:29.155Z,48.80
2023-11-12T16:38:57.304Z,49.04
2023-11-12T16:41:25.110Z,48.84
2023-11-12T16:43:53.179Z,49.40
2023-11-12T16:46:21.473Z,49.49
2023-11-12T16:48:49.871Z,49.42
2023-11-12T16:51:19.125Z,49.53
2023-11-12T16:53:46.937Z,49.83
2023-11-12T16:56:14.922Z,49.28
2023-11-12T16:58:44.040Z,50.05
2023-11-12T17:01:13.134Z,49.99
2023-11-12T17:03:41.214Z,50.18
2023-11-12T17:06:10.628Z,50.87
2023-11-12T17:08:40.068Z,50.27
2023-11-12T17:11:09.351Z,51.07
2023-11-12T17:13:37.168Z,51.10
2023-11-12T17:16:05.349Z,51.17
2023-11-12T17:18:34.446Z,51.83
2023-11-12T17:21:02.711Z,51.70
2023-11-12T17:23:30.702Z,51.76
2023-11-12T17:26:01.136Z,52.22
2023-11-12T17:28:30.366Z,51.74
2023-11-12T17:30:58.384Z,52.04
2023-11-12T17:33:27.365Z,51.92
2023-11-12T17:35:55.409Z,52.49
2023-11-12T17:38:28.961Z,52.53
2023-11-12T17:40:57.320Z,52.80
2023-11-12T17:43:26.870Z,52.64
2023-11-12T17:45:54.850Z,52.76
2023-11-12T17:48:22.963Z,52.73
2023-11-12T17:50:50.948Z,52.81
2023-11-12T17:53:18.920Z,53.11
2023-11-12T17:55:47.093Z,53.17
2023-11-12T17:58:15.328Z,53.71
2023-11-12T18:00:44.661Z,53.12
2023-11-12T18:03:13.465Z,53.83
2023-11-12T18:05:41.464Z,53.96
2023-11-12T18:08:09.639Z,54.49
2023-11-12T18:10:38.032Z,53.62
2023-11-12T18:13:07.074Z,53.74
2023-11-12T18:15:37.785Z,53.75
2023-11-12T18:18:30.090Z,54.13
2023-11-12T18:21:08.592Z,53.97
2023-11-12T18:23:38.308Z,54.25
2023-11-12T18:26:06.457Z,54.40
2023-11-12T18:28:38.136Z,54.21
2023-11-12T18:31:07.308Z,54.28
2023-11-12T18:33:37.213Z,53.81
2023-11-12T18:36:05.272Z,54.44
2023-11-12T18:38:34.932Z,54.27
2023-11-12T18:41:03.060Z,54.08
2023-11-12T18:43:30.977Z,54.17
2023-11-12T18:46:02.101Z,53.90
2023-11-12T18:48:30.303Z,54.19
2023-11-12T18:51:00.023Z,53.79
2023-11-12T18:53:27.858Z,53.80
2023-11-12T18:55:56.075Z,53.67
2023-11-12T18:58:24.236Z,54.12
2023-11-12T19:00:51.940Z,54.01
2023-11-12T19:03:20.998Z,54.15
2023-11-12T19:05:49.346Z,54.20
2023-11-12T19:08:19.637Z,54.20
2023-11-12T19:10:47.729Z,54.09
2023-11-12T19:13:15.473Z,53.94
2023-11-12T19:15:43.443Z,54.23
2023-11-12T19:18:13.570Z,54.13
2023-11-12T19:20:41.479Z,54.03
2023-11-12T19:23:12.102Z,54.46
2023-11-12T19:25:44.346Z,54.59
2023-11-12T19:28:12.254Z,53.96
2023-11-12T19:30:40.197Z,54.89
2023-11-12T19:33:08.419Z,54.83
2023-11-12T19:35:37.025Z,55.11
2023-11-12T19:38:04.774Z,54.65
2023-11-12T19:40:35.793Z,55.26
2023-11-12T19:43:06.525Z,55.92
2023-11-12T19:45:34.608Z,55.18
2023-11-12T19:48:02.805Z,55.55
2023-11-12T19:50:31.788Z,54.91
2023-11-12T19:53:00.542Z,55.79
2023-11-12T19:55:28.511Z,57.03
2023-11-12T19:57:56.797Z,56.58
2023-11-12T20:00:26.100Z,56.42
2023-11-12T20:02:54.102Z,56.87
2023-11-12T20:05:21.905Z,56.93
2023-11-12T20:07:50.990Z,57.11
2023-11-12T20:10:19.303Z,56.94
2023-11-12T20:12:47.089Z,57.18
2023-11-12T20:15:15.244Z,56.90
2023-11-12T20:17:47.925Z,56.96
2023-11-12T20:20:16.198Z,57.36
2023-11-12T20:22:46.595Z,57.54
2023-11-12T20:25:14.728Z,57.33
2023-11-12T20:27:43.199Z,57.48
2023-11-12T20:30:12.054Z,57.92
2023-11-12T20:32:40.450Z,56.96
2023-11-12T20:35:10.894Z,57.70
2023-11-12T20:37:39.067Z,57.02
2023-11-12T20:40:10.394Z,57.20
2023-11-12T20:42:38.855Z,57.31
2023-11-12T20:45:07.950Z,57.79
2023-11-12T20:47:36.163Z,57.67
2023-11-12T20:50:05.610Z,57.26
2023-11-12T20:52:35.095Z,57.45
2023-11-12T20:55:03.036Z,57.40
2023-11-12T20:57:30.988Z,56.91
2023-11-12T21:00:00.015Z,57.57
2023-11-12T21:02:29.362Z,57.56
2023-11-12T21:04:57.196Z,57.38
2023-11-12T21:07:25.088Z,57.55
2023-11-12T21:10:05.441Z,58.02
2023-11-12T21:12:33.386Z,57.92
2023-11-12T21:15:07.336Z,57.79
2023-11-12T22:38:37.699Z,59.59
2023-11-12T22:41:06.002Z,59.57
2023-11-12T22:43:33.731Z,59.19
2023-11-12T22:46:03.655Z,59.42
2023-11-12T22:48:31.499Z,59.03
2023-11-12T22:50:59.909Z,58.91
2023-11-12T22:53:28.760Z,59.30
2023-11-12T22:55:57.816Z,59.25
2023-11-12T22:58:25.660Z,59.34
2023-11-12T23:00:56.241Z,59.80
2023-11-12T23:03:24.044Z,58.98
2023-11-12T23:05:52.404Z,59.23
2023-11-12T23:08:20.847Z,58.62
2023-11-12T23:10:50.033Z,59.48
2023-11-12T23:13:21.804Z,58.79
2023-11-12T23:15:49.698Z,59.56
2023-11-12T23:18:19.229Z,59.56
2023-11-12T23:20:52.619Z,59.08
2023-11-12T23:23:27.103Z,59.39
2023-11-12T23:25:55.145Z,58.73
2023-11-12T23:28:26.333Z,59.37
2023-11-12T23:30:54.712Z,59.54
2023-11-12T23:33:23.570Z,59.77
2023-11-12T23:35:51.315Z,59.56
2023-11-12T23:38:19.089Z,59.84
2023-11-12T23:40:46.957Z,59.47
2023-11-12T23:43:15.005Z,59.71
2023-11-12T23:45:44.986Z,59.74
2023-11-12T23:48:12.948Z,59.89
2023-11-12T23:50:40.717Z,59.98
2023-11-12T23:53:08.476Z,60.06
2023-11-12T23:55:36.574Z,60.03
2023-11-12T23:58:05.085Z,59.61
